LLBGLLSD

Guest
Details From LLBG - Tel Aviv Ben Gurion
To LLSD - Sde Dov
Flight Number -
Tags Routegen Generated
Created
Modified
Stats Distance 4 nm / 8 km
Max Altitude 0 ft / 0 m
Waypoints 2
Social Downloads 3
Likes 0
Share VATSIM

Download

Looking for another format? Having issues loading an existing format? Contact us
Advertisement - Login to hide

Notes

Departing runway 25 LLBG. Arriving runway 2 LLSD.

Route

LLBG +32.00_+034.78

ID Type Via Altitude (ft/m) Position (lat/lon) Dist (leg/tot) Name
O LLBG APT - 0 / 0 32.01303 / 34.86038 - / 0 nm
O +32.00_+034.78 DME - 0 / 0 32.00011 / 34.77642 4 / 4 nm

Altitude Profile

Advertisement - Login to hide

LLBG

Details ICAO LLBG (TLV)
Name Tel Aviv Ben Gurion Airport
Region Israel
Timezone Asia/Jerusalem (UTC+2.0)
Stats Elevation 133 ft / 41 m (AMSL)
Location 32.009800° 34.883900°
Runways 3
Magnetic Variation 4.789° E

METAR

LLBG 190050Z VRB01KT 9000 NSC 11/10 Q1017 NOSIG

Decode

TAF

TAF LLBG 182313Z 1900/1924 02005KT 8000 NSC PROB30 1903/1906 5000 BR BECMG 1907/1909 34010KT CAVOK BECMG 1915/1917 02005KT BECMG 1920/1923 VRB03KT 7000 SCT007 TX24/1912Z TN10/1904Z

Decode

Departure Runways

ID Width Length Bearing (true/mag) Surface Threshold Overrun Markings Lighting
03 197 ft / 60 m 9,119 ft / 2,780 m 28.69° / 23.90° ASPHALT 0 ft / 0 m 883 ft / 269 m PREC-APP CENTERLINE EDGE THRESHOLD MALSF
08 148 ft / 45 m 13,340 ft / 4,066 m 79.76° / 74.97° ASPHALT 1,312 ft / 400 m 978 ft / 298 m PREC-APP CENTERLINE EDGE THRESHOLD MALSF
12 148 ft / 45 m 10,219 ft / 3,115 m 121.57° / 116.78° ASPHALT 0 ft / 0 m 994 ft / 303 m PREC-APP CENTERLINE EDGE THRESHOLD MALSF
21 197 ft / 60 m 9,119 ft / 2,780 m 208.70° / 203.91° ASPHALT 0 ft / 0 m 955 ft / 291 m PREC-APP CENTERLINE EDGE THRESHOLD MALSF
26 148 ft / 45 m 13,340 ft / 4,066 m 259.78° / 254.99° ASPHALT 1,982 ft / 604 m 194 ft / 59 m PREC-APP CENTERLINE EDGE THRESHOLD MALSF
30 148 ft / 45 m 10,219 ft / 3,115 m 301.59° / 296.80° ASPHALT 279 ft / 85 m 702 ft / 214 m PREC-APP CENTERLINE EDGE THRESHOLD MALSF

LLSD

Details ICAO LLSD (SDV)
Name Sde Dov Tel Aviv Airport
Region Israel
Timezone Asia/Jerusalem (UTC+2.0)
Stats Elevation 42 ft / 13 m (AMSL)
Location 32.114700° 34.782300°
Runways 1
Magnetic Variation 4.800° E

METAR

Not found

TAF

TAF LLSD 182321Z 1900/1924 03005KT 7000 NSC PROB30 1903/1906 5000 BR BECMG 1907/1909 34015KT BECMG 1916/1918 03005KT BECMG 1920/1922 VRB03KT 5000 BR SCT007 TX21/1912Z TN12/1904Z

Decode

Destination Runways

ID Width Length Bearing (true/mag) Surface Threshold Overrun Markings Lighting
03 98 ft / 30 m 5,697 ft / 1,736 m 27.34° / 22.54° ASPHALT 476 ft / 145 m 0 ft / 0 m PREC-APP EDGE THRESHOLD RAIL REIL-UNI
21 98 ft / 30 m 5,697 ft / 1,736 m 207.34° / 202.54° ASPHALT 456 ft / 139 m 0 ft / 0 m PREC-APP EDGE THRESHOLD RAIL REIL-UNI

Popular Alternatives